createdAt,value
2019-03-13T00:02:23.624Z,4.20
2019-03-13T00:04:53.175Z,4.20
2019-03-13T00:07:22.668Z,4.20
2019-03-13T00:09:52.514Z,4.20
2019-03-13T00:12:22.078Z,4.20
2019-03-13T00:14:51.841Z,4.20
2019-03-13T00:17:21.345Z,4.10
2019-03-13T00:19:50.786Z,4.20
2019-03-13T00:22:20.553Z,4.20
2019-03-13T00:24:50.294Z,4.10
2019-03-13T00:27:20.019Z,4.20
2019-03-13T00:29:49.542Z,4.20
2019-03-13T00:32:18.980Z,4.30
2019-03-13T00:34:48.467Z,4.30
2019-03-13T00:37:18.322Z,4.40
2019-03-13T00:39:47.845Z,4.50
2019-03-13T00:42:17.353Z,4.50
2019-03-13T00:44:47.142Z,4.50
2019-03-13T00:47:16.711Z,4.60
2019-03-13T00:49:46.142Z,4.60
2019-03-13T00:52:16.006Z,4.60
2019-03-13T00:54:45.470Z,4.60
2019-03-13T00:57:14.968Z,4.60
2019-03-13T00:59:44.373Z,4.60
2019-03-13T01:02:22.774Z,4.60
2019-03-13T01:04:57.581Z,4.60
2019-03-13T01:07:27.414Z,4.70
2019-03-13T01:09:56.856Z,4.70
2019-03-13T01:12:26.334Z,4.70
2019-03-13T01:14:55.708Z,4.70
2019-03-13T01:17:25.136Z,4.70
2019-03-13T01:19:54.631Z,4.70
2019-03-13T01:22:24.113Z,4.80
2019-03-13T01:24:53.888Z,4.80
2019-03-13T01:27:23.301Z,4.80
2019-03-13T01:29:52.786Z,4.80
2019-03-13T01:32:41.184Z,4.80
2019-03-13T01:35:35.459Z,4.80
2019-03-13T01:38:05.286Z,4.80
2019-03-13T01:40:34.751Z,4.80
2019-03-13T01:43:04.173Z,4.80
2019-03-13T01:45:33.682Z,4.70
2019-03-13T01:48:03.109Z,4.70
2019-03-13T01:50:32.951Z,4.70
2019-03-13T01:53:02.920Z,4.70
2019-03-13T01:55:32.442Z,4.60
2019-03-13T01:58:02.626Z,4.60
2019-03-13T02:00:32.077Z,4.50
2019-03-13T02:03:01.544Z,4.50
2019-03-13T02:05:31.004Z,4.50
2019-03-13T02:08:00.450Z,4.50
2019-03-13T02:10:29.838Z,4.60
2019-03-13T02:12:59.310Z,4.50
2019-03-13T02:15:28.780Z,4.60
2019-03-13T02:17:58.267Z,4.60
2019-03-13T02:20:27.661Z,4.60
2019-03-13T02:22:57.153Z,4.60
2019-03-13T02:25:26.634Z,4.60
2019-03-13T02:27:56.146Z,4.60
2019-03-13T02:30:27.154Z,4.70
2019-03-13T02:32:56.680Z,4.70
2019-03-13T02:35:26.853Z,4.70
2019-03-13T02:37:56.305Z,4.70
2019-03-13T02:40:25.774Z,4.80
2019-03-13T02:42:55.546Z,4.80
2019-03-13T02:45:25.086Z,4.80
2019-03-13T02:47:54.854Z,4.90
2019-03-13T02:50:24.577Z,4.90
2019-03-13T02:52:54.038Z,5.00
2019-03-13T02:55:23.512Z,5.00
2019-03-13T02:57:53.294Z,5.00
2019-03-13T03:00:37.339Z,5.00
2019-03-13T03:03:05.176Z,5.00
2019-03-13T03:05:34.649Z,5.10
2019-03-13T03:08:04.236Z,5.10
2019-03-13T03:10:33.623Z,5.10
2019-03-13T03:13:03.050Z,5.10
2019-03-13T03:15:32.585Z,5.10
2019-03-13T03:18:02.482Z,5.10
2019-03-13T03:20:31.945Z,5.10
2019-03-13T03:23:01.715Z,5.20
2019-03-13T03:25:31.147Z,5.20
2019-03-13T03:28:00.635Z,5.20
2019-03-13T03:30:30.141Z,5.20
2019-03-13T03:32:59.609Z,5.20
2019-03-13T03:35:29.060Z,5.30
2019-03-13T03:37:58.995Z,5.20
2019-03-13T03:40:28.459Z,5.20
2019-03-13T03:42:58.256Z,5.20
2019-03-13T03:45:28.126Z,5.20
2019-03-13T03:47:57.975Z,5.20
2019-03-13T03:50:27.848Z,5.10
2019-03-13T03:52:57.287Z,5.10
2019-03-13T03:55:26.747Z,5.10
2019-03-13T03:57:56.140Z,5.10
2019-03-13T04:00:25.977Z,5.10
2019-03-13T04:02:55.399Z,5.10
2019-03-13T04:05:24.853Z,5.10
2019-03-13T04:07:54.298Z,5.10
2019-03-13T04:10:23.774Z,5.10
2019-03-13T04:12:53.278Z,5.10
2019-03-13T04:15:22.659Z,5.00
2019-03-13T04:17:52.529Z,5.10
2019-03-13T04:20:21.923Z,5.10
2019-03-13T04:22:51.873Z,5.10
2019-03-13T04:25:46.908Z,5.10
2019-03-13T04:28:16.338Z,5.10
2019-03-13T04:30:45.838Z,5.10
2019-03-13T04:33:15.746Z,5.20
2019-03-13T04:35:45.867Z,5.20
2019-03-13T04:38:15.288Z,5.20
2019-03-13T04:40:44.767Z,5.20
2019-03-13T04:43:14.204Z,5.20
2019-03-13T04:45:43.991Z,5.20
2019-03-13T04:48:14.052Z,5.20
2019-03-13T04:50:43.541Z,5.30
2019-03-13T04:53:12.970Z,5.30
2019-03-13T04:55:42.963Z,5.30
2019-03-13T04:58:12.843Z,5.30
2019-03-13T05:00:42.282Z,5.40
2019-03-13T05:03:12.153Z,5.40
2019-03-13T05:05:46.552Z,5.40
2019-03-13T05:08:45.463Z,5.40
2019-03-13T05:11:15.022Z,5.40
2019-03-13T05:13:44.789Z,5.40
2019-03-13T05:16:14.302Z,5.40
2019-03-13T05:18:44.070Z,5.40
2019-03-13T05:21:14.016Z,5.40
2019-03-13T05:23:43.470Z,5.40
2019-03-13T05:26:12.929Z,5.50
2019-03-13T05:28:42.418Z,5.50
2019-03-13T05:31:12.746Z,5.50
2019-03-13T05:33:42.197Z,5.50
2019-03-13T05:36:11.698Z,5.50
2019-03-13T05:38:41.128Z,5.50
2019-03-13T05:41:11.068Z,5.50
2019-03-13T05:43:40.514Z,5.50
2019-03-13T05:46:10.324Z,5.50
2019-03-13T05:48:40.165Z,5.50
2019-03-13T05:51:09.606Z,5.50
2019-03-13T05:53:39.079Z,5.40
2019-03-13T05:56:08.570Z,5.40
2019-03-13T05:58:38.643Z,5.40
2019-03-13T06:01:08.080Z,5.30
2019-03-13T06:03:37.555Z,5.30
2019-03-13T06:06:07.003Z,5.30
2019-03-13T06:08:36.490Z,5.30
2019-03-13T06:11:06.233Z,5.30
2019-03-13T06:13:35.781Z,5.30
2019-03-13T06:16:05.337Z,5.30
2019-03-13T06:18:34.805Z,5.30
2019-03-13T06:21:04.257Z,5.40
2019-03-13T06:23:34.079Z,5.30
2019-03-13T06:26:03.514Z,5.30
2019-03-13T06:28:32.902Z,5.20
2019-03-13T06:31:02.314Z,5.20
2019-03-13T06:33:31.780Z,5.20
2019-03-13T06:36:01.234Z,5.20
2019-03-13T06:38:30.706Z,5.20
2019-03-13T06:41:00.186Z,5.20
2019-03-13T06:43:29.659Z,5.30
2019-03-13T06:45:59.062Z,5.20
2019-03-13T06:48:28.578Z,5.20
2019-03-13T06:50:58.855Z,5.30
2019-03-13T06:53:28.418Z,5.30
2019-03-13T06:55:57.891Z,5.30
2019-03-13T06:58:35.896Z,5.30
2019-03-13T07:01:24.258Z,5.30
2019-03-13T07:04:21.813Z,5.30
2019-03-13T07:07:09.202Z,5.40
2019-03-13T07:09:47.029Z,5.50
2019-03-13T07:12:30.810Z,5.50
2019-03-13T07:15:18.838Z,5.60
2019-03-13T07:18:05.885Z,5.60
2019-03-13T07:21:03.162Z,5.70
2019-03-13T07:23:56.786Z,5.70
2019-03-13T07:26:51.276Z,5.80
2019-03-13T07:29:48.261Z,5.80
2019-03-13T07:32:46.059Z,5.90
2019-03-13T07:35:49.782Z,5.90
2019-03-13T07:38:28.407Z,6.00
2019-03-13T07:41:31.871Z,6.00
2019-03-13T07:44:19.468Z,6.10
2019-03-13T07:47:13.960Z,6.20
2019-03-13T07:50:07.673Z,6.30
2019-03-13T07:53:02.195Z,6.30
2019-03-13T07:55:56.746Z,6.20
2019-03-13T07:58:36.220Z,6.20
2019-03-13T08:01:16.474Z,6.20
2019-03-13T08:04:22.985Z,6.20
2019-03-13T08:07:20.464Z,6.20
2019-03-13T08:10:11.846Z,6.20
2019-03-13T08:13:06.113Z,6.20
2019-03-13T08:15:42.922Z,6.30
2019-03-13T08:18:25.496Z,6.30
2019-03-13T08:21:23.620Z,6.30
2019-03-13T08:24:10.904Z,6.30
2019-03-13T08:26:47.214Z,6.30
2019-03-13T08:29:35.610Z,6.30
2019-03-13T08:32:16.806Z,6.30
2019-03-13T08:34:56.258Z,6.30
2019-03-13T08:37:43.403Z,6.30
2019-03-13T08:40:18.572Z,6.30
2019-03-13T08:43:05.799Z,6.30
2019-03-13T08:45:55.664Z,6.30
2019-03-13T08:48:38.574Z,6.40
2019-03-13T08:51:15.687Z,6.40
2019-03-13T08:53:57.666Z,6.40
2019-03-13T08:56:31.488Z,6.30
2019-03-13T08:59:23.418Z,6.30
2019-03-13T09:02:05.285Z,6.20
2019-03-13T09:04:47.594Z,6.10
2019-03-13T09:07:45.281Z,6.00
2019-03-13T09:10:34.297Z,5.90
2019-03-13T09:13:25.697Z,5.90
2019-03-13T09:16:14.038Z,5.90
2019-03-13T09:19:05.570Z,5.90
2019-03-13T09:21:47.659Z,5.90
2019-03-13T09:24:39.197Z,5.90
2019-03-13T09:27:26.598Z,5.90
2019-03-13T09:30:12.750Z,5.90
2019-03-13T09:33:10.121Z,5.80
2019-03-13T09:36:07.850Z,5.80
2019-03-13T09:38:55.169Z,5.80
2019-03-13T09:41:30.511Z,5.90
2019-03-13T09:44:18.950Z,5.80
2019-03-13T09:47:06.260Z,5.70
2019-03-13T09:49:53.332Z,5.70
2019-03-13T09:52:48.086Z,5.60
2019-03-13T09:55:35.178Z,5.60
2019-03-13T09:58:23.878Z,5.60
2019-03-13T10:01:08.285Z,5.70
2019-03-13T10:03:55.258Z,5.70
2019-03-13T10:06:58.852Z,5.90
2019-03-13T10:09:53.032Z,5.90
2019-03-13T10:12:28.230Z,5.90
2019-03-13T10:15:05.950Z,6.00
2019-03-13T10:17:57.105Z,5.90
2019-03-13T10:20:44.159Z,6.00
2019-03-13T10:23:41.695Z,6.00
2019-03-13T10:26:33.096Z,6.10
2019-03-13T10:29:23.693Z,6.20
2019-03-13T10:32:14.918Z,6.40
2019-03-13T10:34:56.394Z,6.50
2019-03-13T10:37:45.187Z,6.50
2019-03-13T10:40:32.554Z,6.60
2019-03-13T10:43:24.764Z,6.60
2019-03-13T10:46:01.013Z,6.60
2019-03-13T10:48:49.394Z,6.60
2019-03-13T10:51:36.381Z,6.70
2019-03-13T10:54:32.790Z,6.70
2019-03-13T10:57:15.118Z,6.70
2019-03-13T10:59:57.338Z,6.70
2019-03-13T11:02:55.585Z,6.60
2019-03-13T11:06:02.391Z,6.60
2019-03-13T11:08:39.906Z,6.50
2019-03-13T11:11:17.786Z,6.50
2019-03-13T11:14:15.850Z,6.40
2019-03-13T11:17:08.668Z,6.40
2019-03-13T11:20:03.598Z,6.40
2019-03-13T11:22:47.760Z,6.30
2019-03-13T11:25:35.761Z,6.30
2019-03-13T11:28:11.655Z,6.20
2019-03-13T11:31:00.579Z,6.10
2019-03-13T11:33:49.254Z,6.10
2019-03-13T11:36:36.333Z,6.00
2019-03-13T11:39:25.088Z,6.00
2019-03-13T11:42:16.209Z,6.00
2019-03-13T11:44:55.570Z,6.00
2019-03-13T11:47:42.710Z,5.90
2019-03-13T11:50:42.452Z,5.80
2019-03-13T11:53:46.558Z,5.80
2019-03-13T11:56:32.199Z,5.90
2019-03-13T11:59:33.280Z,5.90
2019-03-13T12:02:30.949Z,6.00
2019-03-13T12:05:28.827Z,6.00
2019-03-13T12:08:15.958Z,6.00
2019-03-13T12:10:52.858Z,6.00
2019-03-13T12:13:39.426Z,6.00
2019-03-13T12:16:39.905Z,6.00
2019-03-13T12:19:25.292Z,6.00
2019-03-13T12:22:03.560Z,5.90
2019-03-13T12:24:44.124Z,5.90
2019-03-13T12:27:35.590Z,5.80
2019-03-13T12:30:34.510Z,5.70
2019-03-13T12:33:19.853Z,5.60
2019-03-13T12:36:14.586Z,5.50
2019-03-13T12:39:01.839Z,5.50
2019-03-13T12:42:02.723Z,5.40
2019-03-13T12:44:50.408Z,5.40
2019-03-13T12:47:44.786Z,5.40
2019-03-13T12:50:39.885Z,5.50
2019-03-13T12:53:34.104Z,5.50
2019-03-13T12:56:35.135Z,5.50
2019-03-13T12:59:27.671Z,5.60
2019-03-13T13:02:34.779Z,5.70
2019-03-13T13:05:26.380Z,5.80
2019-03-13T13:08:14.875Z,5.80
2019-03-13T13:11:06.006Z,5.70
2019-03-13T13:13:54.743Z,5.70
2019-03-13T13:16:39.368Z,5.70
2019-03-13T13:19:09.130Z,5.70
2019-03-13T13:21:38.950Z,5.90
2019-03-13T13:24:08.472Z,6.00
2019-03-13T13:26:37.927Z,6.00
2019-03-13T13:29:07.391Z,6.00
2019-03-13T13:31:37.368Z,6.00
2019-03-13T13:34:06.835Z,6.00
2019-03-13T13:36:36.292Z,6.00
2019-03-13T13:39:08.427Z,6.00
2019-03-13T13:41:37.877Z,6.10
2019-03-13T13:44:07.394Z,6.10
2019-03-13T13:46:39.360Z,6.10
2019-03-13T13:49:09.934Z,6.10
2019-03-13T13:51:39.442Z,6.10
2019-03-13T13:54:08.924Z,6.20
2019-03-13T13:56:38.412Z,6.20
2019-03-13T13:59:08.541Z,6.20
2019-03-13T14:01:38.401Z,6.30
2019-03-13T14:04:07.906Z,6.30
2019-03-13T14:06:37.478Z,6.30
2019-03-13T14:09:07.579Z,6.30
2019-03-13T14:11:37.046Z,6.20
2019-03-13T14:14:06.472Z,6.20
2019-03-13T14:16:35.952Z,6.10
2019-03-13T14:19:05.548Z,6.00
2019-03-13T14:21:35.033Z,6.00
2019-03-13T14:24:04.582Z,6.00
2019-03-13T14:26:34.054Z,5.90
2019-03-13T14:29:03.516Z,5.90
2019-03-13T14:31:32.998Z,5.90
2019-03-13T14:34:02.604Z,5.90
2019-03-13T14:36:32.068Z,6.00
2019-03-13T14:39:01.601Z,6.20
2019-03-13T14:41:31.382Z,6.50
2019-03-13T14:44:00.825Z,6.50
2019-03-13T14:46:30.622Z,6.50
2019-03-13T14:49:00.065Z,6.40
2019-03-13T14:51:29.530Z,6.40
2019-03-13T14:53:59.005Z,6.30
2019-03-13T14:56:28.521Z,6.20
2019-03-13T14:58:58.442Z,6.20
2019-03-13T15:01:28.714Z,6.10
2019-03-13T15:03:58.597Z,6.20
2019-03-13T15:06:28.102Z,6.30
2019-03-13T15:08:57.605Z,6.40
2019-03-13T15:11:27.374Z,6.50
2019-03-13T15:13:56.912Z,6.50
2019-03-13T15:16:26.396Z,6.60
2019-03-13T15:18:55.840Z,6.70
2019-03-13T15:21:25.424Z,6.80
2019-03-13T15:23:54.877Z,6.90
2019-03-13T15:26:24.749Z,6.90
2019-03-13T15:28:54.629Z,6.90
2019-03-13T15:31:24.038Z,6.90
2019-03-13T15:33:53.882Z,6.90
2019-03-13T15:36:23.297Z,6.90
2019-03-13T15:38:52.790Z,6.90
2019-03-13T15:41:22.202Z,7.00
2019-03-13T15:43:51.998Z,6.90
2019-03-13T15:46:21.456Z,7.00
2019-03-13T15:48:50.938Z,6.90
2019-03-13T15:51:20.894Z,6.90
2019-03-13T15:53:50.304Z,6.80
2019-03-13T15:56:19.796Z,6.80
2019-03-13T15:58:49.253Z,6.90
2019-03-13T16:01:18.690Z,6.90
2019-03-13T16:03:48.410Z,6.90
2019-03-13T16:06:17.930Z,6.80
2019-03-13T16:08:47.395Z,6.80
2019-03-13T16:11:17.311Z,6.80
2019-03-13T16:13:46.785Z,6.80
2019-03-13T16:16:16.408Z,6.80
2019-03-13T16:18:45.860Z,6.80
2019-03-13T16:21:15.358Z,6.80
2019-03-13T16:23:44.886Z,6.90
2019-03-13T16:26:14.319Z,6.90
2019-03-13T16:28:43.710Z,6.90
2019-03-13T16:31:13.183Z,6.80
2019-03-13T16:33:44.662Z,6.80
2019-03-13T16:36:14.235Z,6.80
2019-03-13T16:38:43.738Z,6.80
2019-03-13T16:41:13.582Z,6.80
2019-03-13T16:43:43.109Z,6.80
2019-03-13T16:46:12.638Z,6.70
2019-03-13T16:48:42.628Z,6.70
2019-03-13T16:51:12.051Z,6.70
2019-03-13T16:53:41.505Z,6.70
2019-03-13T16:56:10.910Z,6.80
2019-03-13T16:58:40.511Z,6.80
2019-03-13T17:01:09.952Z,6.90
2019-03-13T17:03:40.017Z,6.90
2019-03-13T17:06:09.518Z,7.10
2019-03-13T17:08:38.929Z,7.20
2019-03-13T17:11:08.931Z,7.20
2019-03-13T17:13:38.713Z,7.20
2019-03-13T17:16:08.254Z,7.10
2019-03-13T17:18:37.641Z,7.20
2019-03-13T17:21:07.867Z,7.20
2019-03-13T17:23:38.224Z,7.30
2019-03-13T17:26:07.842Z,7.20
2019-03-13T17:28:37.276Z,6.90
2019-03-13T17:31:06.761Z,6.80
2019-03-13T17:33:36.166Z,6.80
2019-03-13T17:36:05.630Z,6.80
2019-03-13T17:38:35.177Z,6.80
2019-03-13T17:41:04.586Z,6.90
2019-03-13T17:43:39.212Z,6.90
2019-03-13T17:46:07.363Z,7.00
2019-03-13T17:48:37.044Z,6.90
2019-03-13T17:51:06.745Z,7.10
2019-03-13T17:53:36.324Z,7.10
2019-03-13T17:56:05.790Z,7.10
2019-03-13T17:58:43.313Z,7.10
2019-03-13T18:01:12.807Z,7.10
2019-03-13T18:03:42.287Z,7.10
2019-03-13T18:06:12.077Z,7.20
2019-03-13T18:08:41.570Z,7.20
2019-03-13T18:11:10.974Z,7.30
2019-03-13T18:13:40.710Z,7.20
2019-03-13T18:16:10.521Z,7.20
2019-03-13T18:18:39.993Z,7.20
2019-03-13T18:21:09.483Z,7.30
2019-03-13T18:23:38.958Z,7.20
2019-03-13T18:26:08.418Z,7.20
2019-03-13T18:28:37.838Z,7.10
2019-03-13T18:31:07.623Z,7.20
2019-03-13T18:33:37.046Z,7.10
2019-03-13T18:36:07.605Z,7.00
2019-03-13T18:38:37.046Z,7.00
2019-03-13T18:41:06.590Z,7.10
2019-03-13T18:43:36.385Z,7.00
2019-03-13T18:46:05.831Z,7.00
2019-03-13T18:48:35.719Z,7.00
2019-03-13T18:51:05.205Z,6.90
2019-03-13T18:53:34.635Z,6.80
2019-03-13T18:56:04.076Z,6.90
2019-03-13T18:58:34.928Z,6.90
2019-03-13T19:01:04.948Z,6.80
2019-03-13T19:03:34.813Z,6.80
2019-03-13T19:06:04.282Z,6.70
2019-03-13T19:08:33.725Z,6.70
2019-03-13T19:11:03.593Z,6.70
2019-03-13T19:13:33.010Z,6.70
2019-03-13T19:16:02.445Z,6.70
2019-03-13T19:18:31.884Z,6.60
2019-03-13T19:21:01.704Z,6.50
2019-03-13T19:23:31.194Z,6.50
2019-03-13T19:26:01.067Z,6.40
2019-03-13T19:28:30.482Z,6.40
2019-03-13T19:30:59.947Z,6.30
2019-03-13T19:33:29.406Z,6.40
2019-03-13T19:35:58.910Z,6.40
2019-03-13T19:38:28.694Z,6.40
2019-03-13T19:40:58.204Z,6.40
2019-03-13T19:43:27.688Z,6.30
2019-03-13T19:45:57.112Z,6.30
2019-03-13T19:48:26.922Z,6.30
2019-03-13T19:50:56.826Z,6.30
2019-03-13T19:53:26.509Z,6.30
2019-03-13T19:55:56.032Z,6.30
2019-03-13T19:58:25.554Z,6.20
2019-03-13T20:00:55.038Z,6.20
2019-03-13T20:03:24.877Z,6.20
2019-03-13T20:05:54.350Z,6.30
2019-03-13T20:08:23.786Z,6.30
2019-03-13T20:10:53.275Z,6.30
2019-03-13T20:13:22.706Z,6.40
2019-03-13T20:15:52.141Z,6.40
2019-03-13T20:18:21.688Z,6.50
2019-03-13T20:20:51.114Z,6.50
2019-03-13T20:23:20.604Z,6.50
2019-03-13T20:25:50.415Z,6.50
2019-03-13T20:28:20.235Z,6.40
2019-03-13T20:30:49.684Z,6.40
2019-03-13T20:33:19.116Z,6.40
2019-03-13T20:35:48.830Z,6.40
2019-03-13T20:38:18.410Z,6.50
2019-03-13T20:40:47.838Z,6.50
2019-03-13T20:43:17.324Z,6.60
2019-03-13T20:45:46.788Z,6.70
2019-03-13T20:48:16.669Z,6.60
2019-03-13T20:50:46.186Z,6.60
2019-03-13T20:53:15.994Z,6.60
2019-03-13T20:55:45.413Z,6.70
2019-03-13T20:58:14.930Z,6.80
2019-03-13T21:00:44.327Z,6.80
2019-03-13T21:03:13.802Z,6.80
2019-03-13T21:05:43.286Z,6.80
2019-03-13T21:08:12.746Z,6.80
2019-03-13T21:10:42.193Z,6.80
2019-03-13T21:13:11.674Z,6.80
2019-03-13T21:15:43.532Z,6.80
2019-03-13T21:18:12.266Z,6.70
2019-03-13T21:20:41.879Z,6.70
2019-03-13T21:23:11.387Z,6.60
2019-03-13T21:25:40.885Z,6.60
2019-03-13T21:28:10.926Z,6.60
2019-03-13T21:30:40.516Z,6.70
2019-03-13T21:33:10.470Z,6.70
2019-03-13T21:35:39.959Z,6.70
2019-03-13T21:38:09.469Z,6.70
2019-03-13T21:40:39.314Z,6.80
2019-03-13T21:43:09.553Z,6.80
2019-03-13T21:45:41.397Z,6.80
2019-03-13T21:48:10.056Z,6.80
2019-03-13T21:50:39.539Z,6.80
2019-03-13T21:53:09.130Z,6.80
2019-03-13T21:55:38.811Z,6.80
2019-03-13T21:58:08.319Z,6.80
2019-03-13T22:00:37.753Z,6.80
2019-03-13T22:03:07.206Z,6.80
2019-03-13T22:05:37.081Z,6.70
2019-03-13T22:08:06.568Z,6.70
2019-03-13T22:10:36.098Z,6.70
2019-03-13T22:13:05.574Z,6.70
2019-03-13T22:15:35.005Z,6.70
2019-03-13T22:18:04.626Z,6.60
2019-03-13T22:20:34.360Z,6.70
2019-03-13T22:23:04.298Z,6.70
2019-03-13T22:25:33.725Z,6.60
2019-03-13T22:28:03.547Z,6.60
2019-03-13T22:30:33.002Z,6.50
2019-03-13T22:33:02.529Z,6.50
2019-03-13T22:35:31.979Z,6.40
2019-03-13T22:38:01.408Z,6.30
2019-03-13T22:40:30.902Z,6.30
2019-03-13T22:43:00.385Z,6.30
2019-03-13T22:45:29.903Z,6.30
2019-03-13T22:47:59.665Z,6.20
2019-03-13T22:50:29.092Z,6.20
2019-03-13T22:52:58.843Z,6.20
2019-03-13T22:55:28.334Z,6.10
2019-03-13T22:57:57.764Z,6.10
2019-03-13T23:00:47.324Z,6.00
2019-03-13T23:03:17.314Z,6.00
2019-03-13T23:05:46.657Z,5.90
2019-03-13T23:08:16.138Z,5.90
2019-03-13T23:10:45.643Z,5.90
2019-03-13T23:13:17.207Z,5.80
2019-03-13T23:15:46.223Z,5.80
2019-03-13T23:18:18.075Z,5.80
2019-03-13T23:20:46.758Z,5.70
2019-03-13T23:23:16.711Z,5.60
2019-03-13T23:25:46.273Z,5.60
2019-03-13T23:28:15.834Z,5.50
2019-03-13T23:30:45.578Z,5.50
2019-03-13T23:33:15.058Z,5.40
2019-03-13T23:35:44.940Z,5.40
2019-03-13T23:38:14.299Z,5.30
2019-03-13T23:40:43.916Z,5.20
2019-03-13T23:43:13.333Z,5.20
2019-03-13T23:45:42.790Z,5.20
2019-03-13T23:48:12.871Z,5.10
2019-03-13T23:50:42.287Z,5.20
2019-03-13T23:53:11.752Z,5.20
2019-03-13T23:55:41.204Z,5.20
2019-03-13T23:58:11.634Z,5.20
